createdAt,value
2022-10-16T00:01:34.104Z,52.17
2022-10-16T00:04:01.446Z,52.72
2022-10-16T00:06:30.367Z,49.50
2022-10-16T00:08:57.727Z,48.80
2022-10-16T00:11:27.324Z,48.15
2022-10-16T00:13:58.142Z,49.17
2022-10-16T00:16:25.716Z,49.65
2022-10-16T00:18:52.706Z,47.20
2022-10-16T00:21:22.466Z,48.22
2022-10-16T00:23:57.746Z,47.80
2022-10-16T00:26:24.792Z,48.25
2022-10-16T00:28:52.795Z,47.95
2022-10-16T00:31:22.544Z,46.05
2022-10-16T00:33:50.165Z,45.33
2022-10-16T00:36:19.686Z,44.83
2022-10-16T00:38:47.151Z,42.88
2022-10-16T00:41:16.860Z,42.03
2022-10-16T00:43:50.035Z,43.90
2022-10-16T00:46:18.951Z,44.33
2022-10-16T00:49:07.209Z,41.45
2022-10-16T00:51:40.192Z,40.30
2022-10-16T00:54:16.926Z,38.92
2022-10-16T00:56:45.102Z,39.47
2022-10-16T00:59:17.607Z,38.35
2022-10-16T01:01:44.706Z,38.75
2022-10-16T01:04:11.706Z,35.80
2022-10-16T01:06:49.171Z,36.83
2022-10-16T01:09:26.983Z,35.03
2022-10-16T01:12:16.385Z,37.05
2022-10-16T01:14:56.225Z,35.00
2022-10-16T01:17:38.494Z,35.97
2022-10-16T01:20:27.825Z,36.40
2022-10-16T01:23:06.734Z,34.70
2022-10-16T01:25:38.946Z,34.45
2022-10-16T01:30:34.017Z,33.20
2022-10-16T01:33:06.108Z,32.63
2022-10-16T01:35:42.872Z,31.40
2022-10-16T01:38:20.622Z,31.58
2022-10-16T01:40:52.755Z,32.00
2022-10-16T01:45:51.093Z,29.65
2022-10-16T01:48:19.511Z,29.98
2022-10-16T01:51:03.227Z,28.63
2022-10-16T01:53:30.727Z,27.58
2022-10-16T01:55:59.586Z,28.27
2022-10-16T01:58:28.254Z,27.50
2022-10-16T02:00:56.359Z,27.52
2022-10-16T02:03:24.036Z,27.73
2022-10-16T02:05:55.716Z,28.63
2022-10-16T02:08:24.306Z,26.08
2022-10-16T02:10:51.475Z,28.92
2022-10-16T02:13:24.196Z,28.48
2022-10-16T02:15:51.313Z,27.83
2022-10-16T02:18:21.675Z,29.23
2022-10-16T02:20:57.754Z,28.67
2022-10-16T02:23:46.029Z,28.90
2022-10-16T02:26:15.918Z,28.15
2022-10-16T02:28:55.497Z,28.95
2022-10-16T02:31:28.787Z,28.83
2022-10-16T02:33:57.827Z,29.60
2022-10-16T02:36:25.025Z,28.67
2022-10-16T02:38:52.280Z,28.58
2022-10-16T02:41:19.825Z,30.27
2022-10-16T02:43:46.785Z,29.52
2022-10-16T02:46:13.856Z,28.77
2022-10-16T02:48:40.831Z,29.08
2022-10-16T02:51:07.910Z,28.73
2022-10-16T02:53:34.884Z,28.75
2022-10-16T02:56:01.824Z,29.08
2022-10-16T02:58:28.912Z,28.83
2022-10-16T03:00:56.451Z,28.63
2022-10-16T03:03:23.395Z,29.80
2022-10-16T03:05:51.424Z,27.63
2022-10-16T03:08:18.605Z,27.75
2022-10-16T03:10:45.767Z,28.58
2022-10-16T03:13:12.808Z,28.83
2022-10-16T03:15:39.834Z,29.42
2022-10-16T03:18:06.765Z,28.48
2022-10-16T03:20:33.948Z,28.08
2022-10-16T03:23:00.895Z,28.92
2022-10-16T03:25:27.904Z,27.05
2022-10-16T03:27:54.765Z,27.25
2022-10-16T03:30:22.234Z,27.63
2022-10-16T03:32:49.126Z,27.83
2022-10-16T03:35:16.317Z,27.52
2022-10-16T03:37:43.335Z,30.20
2022-10-16T03:40:10.984Z,29.23
2022-10-16T03:42:37.913Z,31.00
2022-10-16T03:45:05.696Z,31.95
2022-10-16T03:47:34.151Z,32.00
2022-10-16T03:50:01.632Z,32.38
2022-10-16T03:52:28.886Z,33.47
2022-10-16T03:54:56.182Z,34.00
2022-10-16T03:57:23.605Z,34.38
2022-10-16T03:59:50.951Z,33.72
2022-10-16T04:02:18.000Z,32.30
2022-10-16T04:04:44.980Z,31.73
2022-10-16T04:07:11.948Z,31.90
2022-10-16T04:09:38.990Z,31.25
2022-10-16T04:12:06.068Z,32.47
2022-10-16T04:14:32.954Z,31.88
2022-10-16T04:16:59.864Z,30.98
2022-10-16T04:19:27.566Z,30.58
2022-10-16T04:21:55.274Z,29.80
2022-10-16T04:24:22.267Z,29.95
2022-10-16T04:26:49.238Z,30.88
2022-10-16T04:29:16.285Z,30.95
2022-10-16T04:31:43.251Z,31.77
2022-10-16T04:34:10.253Z,30.52
2022-10-16T04:36:37.195Z,30.42
2022-10-16T04:39:04.355Z,29.30
2022-10-16T04:41:31.297Z,30.70
2022-10-16T04:43:58.266Z,30.75
2022-10-16T04:46:25.166Z,32.28
2022-10-16T04:48:52.296Z,31.50
2022-10-16T04:51:20.009Z,32.10
2022-10-16T04:53:47.206Z,34.25
2022-10-16T04:56:14.322Z,33.97
2022-10-16T04:58:41.226Z,33.80
2022-10-16T05:01:08.264Z,33.80
2022-10-16T05:03:35.526Z,35.03
2022-10-16T05:06:02.546Z,33.97
2022-10-16T05:08:29.533Z,35.05
2022-10-16T05:10:56.605Z,35.30
2022-10-16T05:13:24.374Z,36.75
2022-10-16T05:15:51.310Z,35.08
2022-10-16T05:18:18.768Z,35.83
2022-10-16T05:20:45.663Z,35.75
2022-10-16T05:25:39.946Z,34.95
2022-10-16T05:28:06.938Z,35.67
2022-10-16T05:30:34.026Z,35.65
2022-10-16T05:33:00.968Z,35.75
2022-10-16T05:35:27.993Z,40.78
2022-10-16T05:37:55.238Z,37.42
2022-10-16T05:40:22.897Z,38.47
2022-10-16T05:42:50.083Z,38.88
2022-10-16T05:45:17.362Z,38.92
2022-10-16T05:47:44.731Z,39.75
2022-10-16T05:50:11.903Z,40.60
2022-10-16T05:52:38.903Z,40.50
2022-10-16T05:55:06.511Z,40.35
2022-10-16T05:57:33.560Z,40.72
2022-10-16T06:00:00.732Z,41.45
2022-10-16T06:02:27.927Z,41.45
2022-10-16T06:04:55.174Z,42.00
2022-10-16T06:07:23.627Z,42.17
2022-10-16T06:09:54.665Z,44.45
2022-10-16T06:12:21.726Z,44.38
2022-10-16T06:14:48.758Z,45.30
2022-10-16T06:17:16.172Z,45.47
2022-10-16T06:19:43.240Z,46.55
2022-10-16T06:22:10.407Z,45.25
2022-10-16T06:24:37.466Z,44.50
2022-10-16T06:27:05.419Z,45.67
2022-10-16T06:29:32.327Z,46.63
2022-10-16T06:31:59.395Z,46.83
2022-10-16T06:34:26.285Z,46.33
2022-10-16T06:36:53.369Z,45.80
2022-10-16T06:39:20.284Z,43.55
2022-10-16T06:41:47.279Z,42.95
2022-10-16T06:44:16.322Z,42.88
2022-10-16T06:46:43.346Z,44.08
2022-10-16T06:49:10.402Z,40.47
2022-10-16T06:51:43.254Z,41.00
2022-10-16T06:54:10.645Z,40.97
2022-10-16T06:56:37.913Z,41.55
2022-10-16T06:59:05.306Z,39.28
2022-10-16T07:01:33.190Z,40.30
2022-10-16T07:04:01.529Z,39.35
2022-10-16T07:06:28.804Z,37.13
2022-10-16T07:08:55.979Z,34.65
2022-10-16T07:11:24.430Z,34.38
2022-10-16T07:13:54.979Z,31.73
2022-10-16T07:18:58.641Z,28.67
2022-10-16T07:21:27.386Z,28.20
2022-10-16T07:23:56.245Z,30.48
2022-10-16T07:26:24.365Z,32.67
2022-10-16T07:28:51.789Z,33.60
2022-10-16T07:31:20.448Z,35.63
2022-10-16T07:33:49.356Z,38.13
2022-10-16T07:36:18.719Z,37.13
2022-10-16T07:38:46.612Z,39.88
2022-10-16T07:41:15.790Z,39.15
2022-10-16T07:43:47.986Z,39.67
2022-10-16T07:46:15.606Z,41.80
2022-10-16T07:48:46.784Z,40.75
2022-10-16T07:51:16.102Z,41.88
2022-10-16T07:53:43.085Z,42.97
2022-10-16T07:56:10.671Z,42.47
2022-10-16T07:58:40.290Z,42.15
2022-10-16T08:01:12.689Z,41.92
2022-10-16T08:03:39.726Z,42.08
2022-10-16T08:06:06.649Z,41.90
2022-10-16T08:08:33.682Z,42.05
2022-10-16T08:11:00.986Z,41.58
2022-10-16T08:13:27.931Z,40.97
2022-10-16T08:15:55.533Z,42.22
2022-10-16T08:18:22.560Z,40.88
2022-10-16T08:20:55.814Z,40.78
2022-10-16T08:23:22.844Z,39.67
2022-10-16T08:25:49.930Z,41.00
2022-10-16T08:28:17.815Z,40.05
2022-10-16T08:30:44.849Z,40.08
2022-10-16T08:33:11.931Z,38.63
2022-10-16T08:35:38.991Z,40.22
2022-10-16T08:38:07.038Z,39.20
2022-10-16T08:40:35.732Z,39.97
2022-10-16T08:43:09.731Z,39.28
2022-10-16T08:45:45.995Z,39.80
2022-10-16T08:48:48.391Z,41.42
2022-10-16T08:51:41.729Z,38.72
2022-10-16T08:54:43.683Z,37.45
2022-10-16T08:57:17.559Z,37.75
2022-10-16T08:59:47.202Z,36.58
2022-10-16T09:02:32.976Z,37.58
2022-10-16T09:05:05.488Z,35.47
2022-10-16T09:07:39.927Z,35.45
2022-10-16T09:10:28.789Z,32.47
2022-10-16T09:13:12.982Z,35.03
2022-10-16T09:16:18.437Z,34.53
2022-10-16T09:18:50.056Z,35.28
2022-10-16T09:21:22.672Z,35.45
2022-10-16T09:23:50.385Z,33.90
2022-10-16T09:26:19.151Z,34.35
2022-10-16T09:28:46.541Z,34.05
2022-10-16T09:31:21.355Z,33.63
2022-10-16T09:33:55.214Z,34.17
2022-10-16T09:36:24.649Z,32.63
2022-10-16T09:38:51.650Z,32.42
2022-10-16T09:41:23.010Z,33.63
2022-10-16T09:43:54.987Z,33.33
2022-10-16T09:46:35.182Z,32.67
2022-10-16T09:49:05.890Z,35.10
2022-10-16T09:51:37.266Z,35.15
2022-10-16T09:54:16.051Z,34.58
2022-10-16T09:56:43.791Z,33.83
2022-10-16T09:59:13.846Z,36.10
2022-10-16T10:01:44.585Z,37.22
2022-10-16T10:04:11.718Z,34.88
2022-10-16T10:06:44.593Z,34.80
2022-10-16T10:09:52.693Z,35.90
2022-10-16T10:12:27.115Z,35.53
2022-10-16T10:14:57.034Z,35.03
2022-10-16T10:17:28.666Z,35.92
2022-10-16T10:19:58.229Z,36.38
2022-10-16T10:22:46.703Z,36.28
2022-10-16T10:25:13.625Z,35.50
2022-10-16T10:28:05.324Z,35.78
2022-10-16T10:30:43.433Z,35.38
2022-10-16T10:33:19.870Z,36.13
2022-10-16T10:36:21.249Z,36.60
2022-10-16T10:38:57.822Z,33.85
2022-10-16T10:41:31.700Z,35.55
2022-10-16T10:44:11.056Z,35.65
2022-10-16T10:47:04.055Z,34.97
2022-10-16T10:49:34.108Z,34.22
2022-10-16T10:52:33.079Z,33.78
2022-10-16T10:55:20.772Z,33.30
2022-10-16T10:58:05.753Z,32.60
2022-10-16T11:00:55.164Z,30.70
2022-10-16T11:03:27.914Z,30.98
2022-10-16T11:06:01.977Z,28.15
2022-10-16T11:09:06.853Z,27.92
2022-10-16T11:11:39.793Z,27.67
2022-10-16T11:14:12.676Z,24.40
2022-10-16T11:17:17.149Z,22.23
2022-10-16T11:19:48.315Z,23.40
2022-10-16T11:22:21.319Z,22.70
2022-10-16T11:24:55.214Z,21.67
2022-10-16T11:27:43.308Z,21.00
2022-10-16T11:30:31.919Z,19.80
2022-10-16T11:33:20.909Z,19.48
2022-10-16T11:36:10.209Z,17.23
2022-10-16T11:38:55.154Z,18.25
2022-10-16T11:41:43.629Z,16.75
2022-10-16T11:44:36.655Z,15.85
2022-10-16T11:50:40.006Z,14.15
2022-10-16T11:53:46.749Z,13.45
2022-10-16T11:56:23.063Z,14.05
2022-10-16T11:58:58.015Z,15.00
2022-10-16T12:01:43.331Z,13.75
2022-10-16T12:04:18.763Z,13.80
2022-10-16T12:06:50.560Z,13.68
2022-10-16T12:09:36.392Z,12.95
2022-10-16T12:12:04.742Z,12.80
2022-10-16T12:15:14.840Z,12.35
2022-10-16T12:17:41.241Z,12.20
2022-10-16T12:20:14.231Z,10.95
2022-10-16T12:23:15.120Z,11.65
2022-10-16T12:25:47.436Z,10.80
2022-10-16T12:28:17.429Z,10.52
2022-10-16T12:30:45.088Z,9.80
2022-10-16T12:33:57.446Z,10.38
2022-10-16T12:39:01.429Z,8.88
2022-10-16T12:41:36.301Z,9.00
2022-10-16T12:44:03.907Z,7.65
2022-10-16T12:46:30.750Z,7.70
2022-10-16T12:49:17.579Z,7.63
2022-10-16T12:51:45.023Z,7.57
2022-10-16T12:54:35.493Z,7.15
2022-10-16T12:57:35.573Z,7.50
2022-10-16T13:00:23.768Z,7.28
2022-10-16T13:03:11.706Z,7.50
2022-10-16T13:05:58.164Z,7.55
2022-10-16T13:08:43.788Z,6.72
2022-10-16T13:11:28.850Z,6.95
2022-10-16T13:14:14.323Z,6.93
2022-10-16T13:17:21.602Z,6.45
2022-10-16T13:20:10.731Z,6.18
2022-10-16T13:23:00.711Z,5.93
2022-10-16T13:25:36.466Z,6.38
2022-10-16T13:28:03.714Z,6.60
2022-10-16T13:30:54.355Z,6.53
2022-10-16T13:33:32.359Z,6.13
2022-10-16T13:35:59.680Z,6.85
2022-10-16T13:38:28.854Z,6.47
2022-10-16T13:40:57.168Z,6.97
2022-10-16T13:43:30.384Z,6.40
2022-10-16T13:46:03.132Z,7.00
2022-10-16T13:48:31.241Z,7.00
2022-10-16T13:51:14.259Z,6.75
2022-10-16T13:53:41.848Z,6.88
2022-10-16T13:56:13.159Z,7.40
2022-10-16T13:58:40.448Z,7.30
2022-10-16T14:01:41.006Z,7.18
2022-10-16T14:04:12.987Z,7.10
2022-10-16T14:06:46.072Z,7.25
2022-10-16T14:09:22.385Z,7.50
2022-10-16T14:11:52.602Z,7.55
2022-10-16T14:14:23.345Z,8.02
2022-10-16T14:16:50.551Z,9.10
2022-10-16T14:19:31.813Z,7.72
2022-10-16T14:22:00.217Z,8.45
2022-10-16T14:24:31.879Z,8.60
2022-10-16T14:26:59.547Z,8.30
2022-10-16T14:29:28.610Z,8.88
2022-10-16T14:32:03.514Z,8.15
2022-10-16T14:34:41.099Z,9.52
2022-10-16T14:37:34.925Z,9.20
2022-10-16T14:40:03.598Z,9.02
2022-10-16T14:42:32.050Z,9.48
2022-10-16T14:44:59.309Z,9.38
2022-10-16T14:47:28.243Z,9.27
2022-10-16T14:49:57.100Z,9.30
2022-10-16T14:52:24.120Z,9.80
2022-10-16T14:54:55.788Z,10.27
2022-10-16T14:57:25.820Z,17.45
2022-10-16T14:59:53.318Z,18.20
2022-10-16T15:02:28.616Z,21.60
2022-10-16T15:04:55.869Z,20.17
2022-10-16T15:07:23.214Z,15.85
2022-10-16T15:09:50.234Z,12.48
2022-10-16T15:12:18.063Z,11.60
2022-10-16T15:14:45.084Z,11.68
2022-10-16T15:17:12.581Z,12.27
2022-10-16T15:19:39.830Z,10.85
2022-10-16T15:22:06.835Z,10.48
2022-10-16T15:24:33.869Z,10.73
2022-10-16T15:27:00.887Z,10.88
2022-10-16T15:29:28.243Z,11.30
2022-10-16T15:31:55.167Z,11.50
2022-10-16T15:34:22.110Z,11.60
2022-10-16T15:36:49.150Z,19.35
2022-10-16T15:39:18.830Z,30.48
2022-10-16T15:41:51.710Z,45.97
2022-10-16T15:44:19.278Z,22.25
2022-10-16T15:46:46.410Z,15.57
2022-10-16T15:49:14.190Z,13.85
2022-10-16T15:51:42.139Z,13.50
2022-10-16T15:54:09.851Z,13.60
2022-10-16T15:56:38.344Z,17.45
2022-10-16T15:59:05.947Z,17.63
2022-10-16T16:01:36.859Z,17.20
2022-10-16T16:04:10.992Z,15.25
2022-10-16T16:06:45.922Z,13.77
2022-10-16T16:09:14.694Z,12.88
2022-10-16T16:11:42.209Z,13.13
2022-10-16T16:14:11.969Z,13.30
2022-10-16T16:16:39.207Z,13.95
2022-10-16T16:19:10.604Z,14.45
2022-10-16T16:21:39.245Z,14.27
2022-10-16T16:24:09.487Z,15.05
2022-10-16T16:26:40.604Z,16.13
2022-10-16T16:29:08.713Z,15.67
2022-10-16T16:31:36.517Z,16.80
2022-10-16T16:34:04.230Z,16.80
2022-10-16T16:36:31.486Z,16.63
2022-10-16T16:38:59.073Z,17.10
2022-10-16T16:41:28.552Z,18.45
2022-10-16T16:43:55.930Z,19.60
2022-10-16T16:46:23.058Z,21.20
2022-10-16T16:48:54.594Z,28.25
2022-10-16T16:51:21.802Z,34.50
2022-10-16T16:53:50.851Z,26.95
2022-10-16T16:56:19.098Z,23.10
2022-10-16T16:58:47.503Z,21.98
2022-10-16T17:01:19.952Z,22.17
2022-10-16T17:03:50.937Z,22.20
2022-10-16T17:06:20.768Z,21.05
2022-10-16T17:08:48.868Z,21.77
2022-10-16T17:11:18.435Z,22.25
2022-10-16T17:13:45.736Z,22.33
2022-10-16T17:16:12.756Z,22.08
2022-10-16T17:18:39.870Z,23.73
2022-10-16T17:21:08.627Z,22.30
2022-10-16T17:23:37.135Z,24.98
2022-10-16T17:26:15.563Z,25.98
2022-10-16T17:28:43.473Z,27.15
2022-10-16T17:31:15.538Z,27.17
2022-10-16T17:33:43.811Z,27.58
2022-10-16T17:36:11.994Z,26.80
2022-10-16T17:38:39.105Z,25.88
2022-10-16T17:41:18.149Z,26.92
2022-10-16T17:43:45.568Z,25.77
2022-10-16T17:46:13.560Z,30.50
2022-10-16T17:48:42.367Z,31.10
2022-10-16T17:51:11.383Z,30.60
2022-10-16T17:53:39.585Z,29.83
2022-10-16T17:56:09.131Z,31.38
2022-10-16T17:58:36.902Z,29.08
2022-10-16T18:01:25.379Z,33.00
2022-10-16T18:03:57.649Z,32.55
2022-10-16T18:06:25.129Z,33.40
2022-10-16T18:08:53.376Z,35.72
2022-10-16T18:11:21.137Z,36.60
2022-10-16T18:13:48.328Z,33.90
2022-10-16T18:16:16.485Z,36.53
2022-10-16T18:18:48.054Z,33.80
2022-10-16T18:21:17.059Z,32.67
2022-10-16T18:23:50.691Z,33.42
2022-10-16T18:26:21.292Z,32.38
2022-10-16T18:28:48.819Z,32.15
2022-10-16T18:31:17.341Z,30.45
2022-10-16T18:33:48.972Z,29.83
2022-10-16T18:36:22.218Z,31.95
2022-10-16T18:38:49.705Z,31.95
2022-10-16T18:41:16.826Z,31.73
2022-10-16T18:43:44.204Z,35.10
2022-10-16T18:46:14.262Z,32.83
2022-10-16T18:48:43.683Z,28.50
2022-10-16T18:51:20.611Z,32.33
2022-10-16T18:53:50.370Z,30.88
2022-10-16T18:56:19.077Z,33.20
2022-10-16T18:58:51.723Z,32.60
2022-10-16T19:01:21.273Z,29.83
2022-10-16T19:04:09.296Z,31.10
2022-10-16T19:06:39.803Z,29.58
2022-10-16T19:09:07.344Z,33.75
2022-10-16T19:11:40.505Z,33.75
2022-10-16T19:14:09.402Z,32.55
2022-10-16T19:16:37.353Z,31.00
2022-10-16T19:19:07.722Z,40.90
2022-10-16T19:21:37.062Z,34.35
2022-10-16T19:24:04.847Z,33.67
2022-10-16T19:26:34.784Z,36.83
2022-10-16T19:29:07.318Z,34.33
2022-10-16T19:31:34.746Z,36.15
2022-10-16T19:34:04.521Z,42.92
2022-10-16T19:36:34.316Z,35.05
2022-10-16T19:39:06.150Z,32.53
2022-10-16T19:41:33.996Z,32.38
2022-10-16T19:44:02.734Z,32.97
2022-10-16T19:46:30.808Z,31.25
2022-10-16T19:48:59.950Z,31.98
2022-10-16T19:51:28.045Z,37.53
2022-10-16T19:53:57.392Z,33.33
2022-10-16T19:56:26.605Z,33.33
2022-10-16T19:58:55.682Z,35.92
2022-10-16T20:01:23.865Z,35.03
2022-10-16T20:03:51.144Z,40.70
2022-10-16T20:06:19.342Z,42.58
2022-10-16T20:08:49.358Z,54.33
2022-10-16T20:11:21.629Z,42.33
2022-10-16T20:13:49.407Z,43.78
2022-10-16T20:16:19.260Z,36.40
2022-10-16T20:18:47.567Z,34.67
2022-10-16T20:21:18.246Z,35.80
2022-10-16T20:23:47.285Z,36.50
2022-10-16T20:26:14.966Z,33.95
2022-10-16T20:28:42.917Z,36.15
2022-10-16T20:31:20.767Z,35.45
2022-10-16T20:33:47.903Z,36.28
2022-10-16T20:36:15.710Z,35.30
2022-10-16T20:38:43.144Z,34.50
2022-10-16T20:41:10.644Z,33.13
2022-10-16T20:43:41.114Z,31.38
2022-10-16T20:46:09.703Z,33.78
2022-10-16T20:48:37.172Z,31.50
2022-10-16T20:51:24.019Z,32.38
2022-10-16T20:53:58.951Z,32.45
2022-10-16T20:56:27.754Z,31.80
2022-10-16T20:58:54.776Z,31.77
2022-10-16T21:01:24.095Z,29.50
2022-10-16T21:03:53.734Z,27.27
2022-10-16T21:06:20.997Z,26.20
2022-10-16T21:08:48.089Z,25.88
2022-10-16T21:11:15.096Z,26.77
2022-10-16T21:13:42.737Z,22.17
2022-10-16T21:16:11.463Z,21.70
2022-10-16T21:18:44.054Z,20.73
2022-10-16T21:21:12.277Z,20.27
2022-10-16T21:23:39.387Z,20.48
2022-10-16T21:26:07.295Z,22.80
2022-10-16T21:28:34.480Z,22.38
2022-10-16T21:31:14.469Z,21.42
2022-10-16T21:33:41.785Z,21.23
2022-10-16T21:36:15.702Z,19.55
2022-10-16T21:38:43.030Z,19.20
2022-10-16T21:41:28.926Z,18.33
2022-10-16T21:43:57.315Z,17.98
2022-10-16T21:46:26.826Z,16.58
2022-10-16T21:48:58.393Z,17.13
2022-10-16T21:51:37.309Z,15.57
2022-10-16T21:54:06.463Z,16.70
2022-10-16T21:56:34.470Z,15.35
2022-10-16T21:59:01.446Z,15.98
2022-10-16T22:01:29.041Z,14.80
2022-10-16T22:03:56.056Z,15.20
2022-10-16T22:06:27.155Z,14.27
2022-10-16T22:08:56.546Z,14.27
2022-10-16T22:11:31.416Z,13.82
2022-10-16T22:13:58.603Z,13.20
2022-10-16T22:16:26.770Z,12.85
2022-10-16T22:18:58.004Z,12.10
2022-10-16T22:21:25.717Z,11.93
2022-10-16T22:23:52.725Z,11.38
2022-10-16T22:26:19.747Z,11.48
2022-10-16T22:28:46.833Z,11.40
2022-10-16T22:31:14.919Z,10.93
2022-10-16T22:33:42.462Z,11.05
2022-10-16T22:36:12.947Z,10.93
2022-10-16T22:38:40.511Z,10.75
2022-10-16T22:41:12.956Z,11.80
2022-10-16T22:43:43.149Z,12.57
2022-10-16T22:46:13.785Z,13.80
2022-10-16T22:48:41.592Z,12.90
2022-10-16T22:51:09.674Z,13.73
2022-10-16T22:53:36.712Z,14.38
2022-10-16T22:56:03.804Z,14.90
2022-10-16T22:58:30.966Z,15.93
2022-10-16T23:03:25.240Z,16.27
2022-10-16T23:05:52.269Z,15.90
2022-10-16T23:08:19.190Z,15.25
2022-10-16T23:10:47.682Z,18.48
2022-10-16T23:13:14.946Z,20.25
2022-10-16T23:15:43.112Z,16.92
2022-10-16T23:18:10.837Z,18.10
2022-10-16T23:20:41.727Z,17.83
2022-10-16T23:23:09.381Z,19.50
2022-10-16T23:25:36.767Z,19.20
2022-10-16T23:28:04.636Z,25.00
2022-10-16T23:30:31.862Z,23.30
2022-10-16T23:32:58.826Z,21.45
2022-10-16T23:35:25.815Z,20.42
2022-10-16T23:37:52.819Z,18.90
2022-10-16T23:40:19.815Z,16.23
2022-10-16T23:42:46.786Z,18.05
2022-10-16T23:45:13.693Z,15.30
2022-10-16T23:47:41.673Z,18.27
2022-10-16T23:50:09.705Z,18.25
2022-10-16T23:52:36.826Z,29.95
2022-10-16T23:55:04.566Z,16.38
2022-10-16T23:57:31.663Z,20.02
2022-10-16T23:59:58.707Z,23.52
